sensor_id;sensor_type;location;lat;lon;timestamp;pressure;altitude;pressure_sealevel;temperature;humidity
33161;BME280;19522;45.656;11.302;2023-01-31T00:00:04;98620.53;;;-1.23;93.36
33161;BME280;19522;45.656;11.302;2023-01-31T00:02:32;98620.41;;;-1.08;91.52
33161;BME280;19522;45.656;11.302;2023-01-31T00:05:00;98624.69;;;-1.19;92.97
33161;BME280;19522;45.656;11.302;2023-01-31T00:07:26;98635.81;;;-1.01;92.09
33161;BME280;19522;45.656;11.302;2023-01-31T00:09:52;98608.81;;;-1.20;92.16
33161;BME280;19522;45.656;11.302;2023-01-31T00:12:17;98625.69;;;-0.96;91.31
33161;BME280;19522;45.656;11.302;2023-01-31T00:14:43;98603.47;;;-1.20;91.02
33161;BME280;19522;45.656;11.302;2023-01-31T00:17:08;98597.56;;;-1.13;91.30
33161;BME280;19522;45.656;11.302;2023-01-31T00:19:34;98635.50;;;-0.96;91.18
33161;BME280;19522;45.656;11.302;2023-01-31T00:21:59;98631.84;;;-0.82;89.71
33161;BME280;19522;45.656;11.302;2023-01-31T00:24:25;98638.69;;;-0.91;90.18
33161;BME280;19522;45.656;11.302;2023-01-31T00:26:50;98633.06;;;-0.99;90.60
33161;BME280;19522;45.656;11.302;2023-01-31T00:29:24;98640.19;;;-0.87;90.53
33161;BME280;19522;45.656;11.302;2023-01-31T00:31:50;98641.84;;;-0.73;89.69
33161;BME280;19522;45.656;11.302;2023-01-31T00:34:16;98629.69;;;-0.77;89.05
33161;BME280;19522;45.656;11.302;2023-01-31T00:36:41;98627.97;;;-0.78;88.80
33161;BME280;19522;45.656;11.302;2023-01-31T00:39:07;98634.53;;;-0.82;89.35
33161;BME280;19522;45.656;11.302;2023-01-31T00:41:34;98620.81;;;-1.02;89.81
33161;BME280;19522;45.656;11.302;2023-01-31T00:44:00;98624.03;;;-1.10;90.71
33161;BME280;19522;45.656;11.302;2023-01-31T00:46:26;98641.16;;;-0.88;89.79
33161;BME280;19522;45.656;11.302;2023-01-31T00:48:52;98639.53;;;-0.77;88.45
33161;BME280;19522;45.656;11.302;2023-01-31T00:51:19;98648.53;;;-0.91;88.74
33161;BME280;19522;45.656;11.302;2023-01-31T00:53:45;98642.44;;;-0.93;88.82
33161;BME280;19522;45.656;11.302;2023-01-31T00:56:16;98661.13;;;-1.06;89.04
33161;BME280;19522;45.656;11.302;2023-01-31T00:58:44;98661.56;;;-1.26;89.49
33161;BME280;19522;45.656;11.302;2023-01-31T01:01:14;98667.09;;;-1.29;91.21
33161;BME280;19522;45.656;11.302;2023-01-31T01:03:44;98676.06;;;-1.30;91.57
33161;BME280;19522;45.656;11.302;2023-01-31T01:06:13;98669.66;;;-1.14;90.53
33161;BME280;19522;45.656;11.302;2023-01-31T01:08:40;98674.84;;;-1.00;89.40
33161;BME280;19522;45.656;11.302;2023-01-31T01:11:21;98662.84;;;-1.18;89.08
33161;BME280;19522;45.656;11.302;2023-01-31T01:13:47;98660.50;;;-1.23;89.65
33161;BME280;19522;45.656;11.302;2023-01-31T01:16:24;98690.25;;;-1.29;90.17
33161;BME280;19522;45.656;11.302;2023-01-31T01:18:50;98682.56;;;-1.08;89.68
33161;BME280;19522;45.656;11.302;2023-01-31T01:21:24;98648.16;;;-1.37;89.63
33161;BME280;19522;45.656;11.302;2023-01-31T01:23:54;98661.81;;;-1.54;90.83
33161;BME280;19522;45.656;11.302;2023-01-31T01:26:23;98681.00;;;-1.36;91.52
33161;BME280;19522;45.656;11.302;2023-01-31T01:28:50;98669.38;;;-1.35;91.34
33161;BME280;19522;45.656;11.302;2023-01-31T01:31:17;98655.84;;;-1.45;91.98
33161;BME280;19522;45.656;11.302;2023-01-31T01:33:44;98678.22;;;-1.35;92.41
33161;BME280;19522;45.656;11.302;2023-01-31T01:36:11;98677.88;;;-1.17;91.27
33161;BME280;19522;45.656;11.302;2023-01-31T01:38:38;98674.13;;;-1.15;90.98
33161;BME280;19522;45.656;11.302;2023-01-31T01:41:08;98670.47;;;-1.01;90.21
33161;BME280;19522;45.656;11.302;2023-01-31T01:43:46;98640.91;;;-1.35;90.70
33161;BME280;19522;45.656;11.302;2023-01-31T01:46:16;98674.56;;;-1.08;90.64
33161;BME280;19522;45.656;11.302;2023-01-31T01:48:44;98669.13;;;-1.19;90.65
33161;BME280;19522;45.656;11.302;2023-01-31T01:51:12;98672.53;;;-1.17;90.61
33161;BME280;19522;45.656;11.302;2023-01-31T01:53:40;98678.94;;;-1.07;90.50
33161;BME280;19522;45.656;11.302;2023-01-31T01:56:09;98663.59;;;-1.16;89.56
33161;BME280;19522;45.656;11.302;2023-01-31T01:58:41;98692.06;;;-1.04;89.39
33161;BME280;19522;45.656;11.302;2023-01-31T02:01:09;98699.16;;;-0.79;87.90
33161;BME280;19522;45.656;11.302;2023-01-31T02:03:35;98678.03;;;-0.82;87.55
33161;BME280;19522;45.656;11.302;2023-01-31T02:06:03;98698.50;;;-0.69;87.00
33161;BME280;19522;45.656;11.302;2023-01-31T02:08:32;98678.06;;;-0.95;87.31
33161;BME280;19522;45.656;11.302;2023-01-31T02:11:20;98699.69;;;-0.86;87.86
33161;BME280;19522;45.656;11.302;2023-01-31T02:13:47;98677.84;;;-1.04;88.10
33161;BME280;19522;45.656;11.302;2023-01-31T02:16:14;98688.56;;;-0.80;87.45
33161;BME280;19522;45.656;11.302;2023-01-31T02:18:39;98697.63;;;-0.70;86.39
33161;BME280;19522;45.656;11.302;2023-01-31T02:35:29;98682.94;;;-0.88;85.49
33161;BME280;19522;45.656;11.302;2023-01-31T02:40:53;98716.91;;;-0.66;84.30
33161;BME280;19522;45.656;11.302;2023-01-31T02:46:12;98707.13;;;-0.66;83.08
33161;BME280;19522;45.656;11.302;2023-01-31T02:48:52;98703.06;;;-0.71;83.52
33161;BME280;19522;45.656;11.302;2023-01-31T02:51:40;98716.66;;;-0.87;84.31
33161;BME280;19522;45.656;11.302;2023-01-31T02:54:12;98720.81;;;-0.83;84.29
33161;BME280;19522;45.656;11.302;2023-01-31T02:56:40;98719.66;;;-0.92;84.63
33161;BME280;19522;45.656;11.302;2023-01-31T02:59:19;98700.84;;;-0.90;84.60
33161;BME280;19522;45.656;11.302;2023-01-31T03:01:54;98725.50;;;-0.74;83.81
33161;BME280;19522;45.656;11.302;2023-01-31T03:04:20;98725.38;;;-0.72;83.08
33161;BME280;19522;45.656;11.302;2023-01-31T03:23:05;98719.91;;;-0.71;80.95
33161;BME280;19522;45.656;11.302;2023-01-31T03:25:34;98739.81;;;-0.38;78.80
33161;BME280;19522;45.656;11.302;2023-01-31T03:28:05;98739.38;;;-0.44;78.50
33161;BME280;19522;45.656;11.302;2023-01-31T03:30:53;98746.78;;;-0.48;79.09
33161;BME280;19522;45.656;11.302;2023-01-31T03:33:26;98742.84;;;-0.55;78.41
33161;BME280;19522;45.656;11.302;2023-01-31T03:41:33;98740.97;;;-0.92;80.52
33161;BME280;19522;45.656;11.302;2023-01-31T03:44:07;98755.38;;;-0.82;79.66
33161;BME280;19522;45.656;11.302;2023-01-31T03:46:49;98757.91;;;-0.80;79.22
33161;BME280;19522;45.656;11.302;2023-01-31T03:49:16;98742.16;;;-0.83;78.81
33161;BME280;19522;45.656;11.302;2023-01-31T03:51:45;98758.97;;;-0.70;77.93
33161;BME280;19522;45.656;11.302;2023-01-31T03:54:17;98732.53;;;-0.86;77.36
33161;BME280;19522;45.656;11.302;2023-01-31T03:56:52;98755.75;;;-0.62;77.21
33161;BME280;19522;45.656;11.302;2023-01-31T03:59:22;98742.47;;;-0.75;77.18
33161;BME280;19522;45.656;11.302;2023-01-31T04:01:52;98749.91;;;-0.80;77.00
33161;BME280;19522;45.656;11.302;2023-01-31T04:04:29;98746.91;;;-0.63;75.81
33161;BME280;19522;45.656;11.302;2023-01-31T04:06:57;98742.88;;;-0.68;75.51
33161;BME280;19522;45.656;11.302;2023-01-31T04:09:23;98726.53;;;-0.76;75.47
33161;BME280;19522;45.656;11.302;2023-01-31T04:11:49;98737.34;;;-0.78;76.52
33161;BME280;19522;45.656;11.302;2023-01-31T04:14:16;98718.06;;;-1.07;77.08
33161;BME280;19522;45.656;11.302;2023-01-31T04:16:43;98739.91;;;-0.89;77.11
33161;BME280;19522;45.656;11.302;2023-01-31T04:19:08;98743.88;;;-0.82;76.94
33161;BME280;19522;45.656;11.302;2023-01-31T04:21:34;98749.81;;;-0.66;75.53
33161;BME280;19522;45.656;11.302;2023-01-31T04:24:00;98746.28;;;-0.79;76.38
33161;BME280;19522;45.656;11.302;2023-01-31T04:26:25;98742.13;;;-0.70;76.24
33161;BME280;19522;45.656;11.302;2023-01-31T04:28:51;98745.81;;;-0.47;75.16
33161;BME280;19522;45.656;11.302;2023-01-31T04:31:16;98752.44;;;-0.53;74.76
33161;BME280;19522;45.656;11.302;2023-01-31T04:33:45;98751.91;;;-0.45;74.74
33161;BME280;19522;45.656;11.302;2023-01-31T04:36:11;98757.09;;;-0.43;74.18
33161;BME280;19522;45.656;11.302;2023-01-31T04:38:36;98701.44;;;-0.98;75.03
33161;BME280;19522;45.656;11.302;2023-01-31T04:41:02;98764.44;;;-0.71;75.77
33161;BME280;19522;45.656;11.302;2023-01-31T04:43:28;98758.16;;;-0.83;75.73
33161;BME280;19522;45.656;11.302;2023-01-31T04:45:56;98752.81;;;-0.83;76.10
33161;BME280;19522;45.656;11.302;2023-01-31T04:48:22;98753.00;;;-0.73;75.73
33161;BME280;19522;45.656;11.302;2023-01-31T04:50:47;98753.00;;;-0.73;75.37
33161;BME280;19522;45.656;11.302;2023-01-31T04:53:13;98673.72;;;-1.34;75.26
33161;BME280;19522;45.656;11.302;2023-01-31T04:55:38;98750.88;;;-0.81;74.73
33161;BME280;19522;45.656;11.302;2023-01-31T04:58:04;98755.31;;;-0.56;73.71
33161;BME280;19522;45.656;11.302;2023-01-31T05:00:29;98755.94;;;-0.52;73.47
33161;BME280;19522;45.656;11.302;2023-01-31T05:02:54;98729.41;;;-0.67;73.50
33161;BME280;19522;45.656;11.302;2023-01-31T05:05:20;98741.56;;;-0.63;73.83
33161;BME280;19522;45.656;11.302;2023-01-31T05:07:46;98760.81;;;-0.70;74.03
33161;BME280;19522;45.656;11.302;2023-01-31T05:10:11;98755.78;;;-0.75;74.35
33161;BME280;19522;45.656;11.302;2023-01-31T05:12:37;98743.13;;;-0.84;74.65
33161;BME280;19522;45.656;11.302;2023-01-31T05:15:03;98759.84;;;-0.69;74.59
33161;BME280;19522;45.656;11.302;2023-01-31T05:17:32;98738.94;;;-0.88;73.79
33161;BME280;19522;45.656;11.302;2023-01-31T05:19:58;98762.09;;;-0.76;73.30
33161;BME280;19522;45.656;11.302;2023-01-31T05:22:24;98768.22;;;-0.63;73.00
33161;BME280;19522;45.656;11.302;2023-01-31T05:24:50;98764.06;;;-0.54;72.90
33161;BME280;19522;45.656;11.302;2023-01-31T05:27:16;98763.66;;;-0.60;72.72
33161;BME280;19522;45.656;11.302;2023-01-31T05:29:42;98763.03;;;-0.64;73.19
33161;BME280;19522;45.656;11.302;2023-01-31T05:32:08;98771.16;;;-0.66;72.91
33161;BME280;19522;45.656;11.302;2023-01-31T05:34:34;98768.69;;;-0.69;73.10
33161;BME280;19522;45.656;11.302;2023-01-31T05:37:00;98764.31;;;-0.83;73.97
33161;BME280;19522;45.656;11.302;2023-01-31T05:39:26;98770.28;;;-0.79;73.77
33161;BME280;19522;45.656;11.302;2023-01-31T05:41:52;98782.03;;;-0.69;73.20
33161;BME280;19522;45.656;11.302;2023-01-31T05:44:18;98786.06;;;-0.63;72.96
33161;BME280;19522;45.656;11.302;2023-01-31T05:46:44;98788.19;;;-0.55;72.04
33161;BME280;19522;45.656;11.302;2023-01-31T05:49:10;98790.31;;;-0.60;72.06
33161;BME280;19522;45.656;11.302;2023-01-31T05:51:35;98788.31;;;-0.70;73.04
33161;BME280;19522;45.656;11.302;2023-01-31T05:54:01;98786.81;;;-0.61;72.97
33161;BME280;19522;45.656;11.302;2023-01-31T05:56:26;98793.44;;;-0.67;73.34
33161;BME280;19522;45.656;11.302;2023-01-31T05:58:52;98770.28;;;-0.79;72.98
33161;BME280;19522;45.656;11.302;2023-01-31T06:01:23;98795.25;;;-0.67;72.36
33161;BME280;19522;45.656;11.302;2023-01-31T06:03:52;98795.25;;;-0.67;72.21
33161;BME280;19522;45.656;11.302;2023-01-31T06:06:21;98796.28;;;-0.57;71.87
33161;BME280;19522;45.656;11.302;2023-01-31T06:08:47;98801.25;;;-0.64;72.26
33161;BME280;19522;45.656;11.302;2023-01-31T06:11:13;98724.88;;;-1.03;71.67
33161;BME280;19522;45.656;11.302;2023-01-31T06:13:42;98806.00;;;-0.56;71.41
33161;BME280;19522;45.656;11.302;2023-01-31T06:16:08;98807.75;;;-0.68;71.54
33161;BME280;19522;45.656;11.302;2023-01-31T06:18:34;98810.19;;;-0.90;72.34
33161;BME280;19522;45.656;11.302;2023-01-31T06:21:00;98820.88;;;-0.77;71.70
33161;BME280;19522;45.656;11.302;2023-01-31T06:23:26;98824.81;;;-0.83;71.77
33161;BME280;19522;45.656;11.302;2023-01-31T06:25:52;98814.25;;;-0.85;71.71
33161;BME280;19522;45.656;11.302;2023-01-31T06:28:18;98833.22;;;-0.89;72.46
33161;BME280;19522;45.656;11.302;2023-01-31T06:30:44;98831.63;;;-0.79;72.58
33161;BME280;19522;45.656;11.302;2023-01-31T06:33:10;98841.78;;;-0.84;72.59
33161;BME280;19522;45.656;11.302;2023-01-31T06:35:37;98852.03;;;-0.91;72.36
33161;BME280;19522;45.656;11.302;2023-01-31T06:38:03;98676.44;;;-2.00;72.38
33161;BME280;19522;45.656;11.302;2023-01-31T06:40:29;98858.00;;;-0.87;71.87
33161;BME280;19522;45.656;11.302;2023-01-31T06:42:56;98856.59;;;-0.67;71.34
33161;BME280;19522;45.656;11.302;2023-01-31T06:45:21;98859.69;;;-0.73;70.66
33161;BME280;19522;45.656;11.302;2023-01-31T06:47:47;98834.50;;;-0.95;70.81
33161;BME280;19522;45.656;11.302;2023-01-31T06:50:16;98873.16;;;-0.75;70.46
33161;BME280;19522;45.656;11.302;2023-01-31T06:52:42;98847.44;;;-0.89;69.53
33161;BME280;19522;45.656;11.302;2023-01-31T06:55:07;98859.69;;;-0.73;69.02
33161;BME280;19522;45.656;11.302;2023-01-31T06:57:33;98838.16;;;-0.83;67.85
33161;BME280;19522;45.656;11.302;2023-01-31T06:59:59;98871.22;;;-0.60;68.30
33161;BME280;19522;45.656;11.302;2023-01-31T07:02:24;98859.94;;;-0.64;68.29
33161;BME280;19522;45.656;11.302;2023-01-31T07:04:52;98849.03;;;-0.86;68.38
33161;BME280;19522;45.656;11.302;2023-01-31T07:07:18;98876.25;;;-0.55;68.05
33161;BME280;19522;45.656;11.302;2023-01-31T07:09:43;98848.28;;;-0.75;68.90
33161;BME280;19522;45.656;11.302;2023-01-31T07:12:09;98855.88;;;-0.82;68.54
33161;BME280;19522;45.656;11.302;2023-01-31T07:14:35;98878.03;;;-0.56;68.67
33161;BME280;19522;45.656;11.302;2023-01-31T07:17:00;98871.13;;;-0.58;68.67
33161;BME280;19522;45.656;11.302;2023-01-31T07:19:26;98880.00;;;-0.58;68.94
33161;BME280;19522;45.656;11.302;2023-01-31T07:21:51;98884.34;;;-0.57;69.28
33161;BME280;19522;45.656;11.302;2023-01-31T07:24:17;98812.22;;;-0.94;69.38
33161;BME280;19522;45.656;11.302;2023-01-31T07:26:43;98861.84;;;-0.66;69.42
33161;BME280;19522;45.656;11.302;2023-01-31T07:29:08;98867.91;;;-0.76;69.58
33161;BME280;19522;45.656;11.302;2023-01-31T07:31:34;98885.97;;;-0.41;69.08
33161;BME280;19522;45.656;11.302;2023-01-31T07:33:59;98877.63;;;-0.37;69.25
33161;BME280;19522;45.656;11.302;2023-01-31T07:36:25;98864.06;;;-0.47;68.99
33161;BME280;19522;45.656;11.302;2023-01-31T07:38:57;98875.81;;;-0.49;68.91
33161;BME280;19522;45.656;11.302;2023-01-31T07:41:23;98883.38;;;-0.43;69.26
33161;BME280;19522;45.656;11.302;2023-01-31T07:43:49;98869.72;;;-0.51;67.95
33161;BME280;19522;45.656;11.302;2023-01-31T07:46:14;98845.50;;;-0.48;66.74
33161;BME280;19522;45.656;11.302;2023-01-31T07:48:40;98876.34;;;-0.31;66.94
33161;BME280;19522;45.656;11.302;2023-01-31T07:51:06;98878.25;;;-0.33;66.65
33161;BME280;19522;45.656;11.302;2023-01-31T07:53:35;98877.72;;;-0.25;66.12
33161;BME280;19522;45.656;11.302;2023-01-31T07:56:14;98877.78;;;-0.14;65.73
33161;BME280;19522;45.656;11.302;2023-01-31T07:58:40;98878.44;;;-0.10;65.41
33161;BME280;19522;45.656;11.302;2023-01-31T08:01:11;98876.50;;;0.05;65.22
33161;BME280;19522;45.656;11.302;2023-01-31T08:03:57;98875.16;;;0.23;65.27
33161;BME280;19522;45.656;11.302;2023-01-31T08:06:22;98882.56;;;0.31;65.98
33161;BME280;19522;45.656;11.302;2023-01-31T08:08:51;98880.84;;;0.43;65.59
33161;BME280;19522;45.656;11.302;2023-01-31T08:11:16;98860.16;;;0.34;65.16
33161;BME280;19522;45.656;11.302;2023-01-31T08:13:42;98877.25;;;0.55;65.49
33161;BME280;19522;45.656;11.302;2023-01-31T08:16:10;98877.50;;;0.64;65.42
33161;BME280;19522;45.656;11.302;2023-01-31T08:18:36;98886.19;;;0.67;65.29
33161;BME280;19522;45.656;11.302;2023-01-31T08:21:02;98881.41;;;0.59;65.09
33161;BME280;19522;45.656;11.302;2023-01-31T08:23:28;98885.41;;;0.89;64.93
33161;BME280;19522;45.656;11.302;2023-01-31T08:26:08;98877.94;;;1.06;64.29
33161;BME280;19522;45.656;11.302;2023-01-31T08:28:35;98875.47;;;1.03;64.23
33161;BME280;19522;45.656;11.302;2023-01-31T08:31:01;98882.78;;;1.12;63.60
33161;BME280;19522;45.656;11.302;2023-01-31T08:33:30;98872.22;;;1.11;62.77
33161;BME280;19522;45.656;11.302;2023-01-31T08:35:56;98889.16;;;1.22;62.02
33161;BME280;19522;45.656;11.302;2023-01-31T08:38:22;98883.97;;;1.44;61.62
33161;BME280;19522;45.656;11.302;2023-01-31T08:40:48;98840.16;;;1.45;60.46
33161;BME280;19522;45.656;11.302;2023-01-31T08:43:14;98880.81;;;1.84;59.79
33161;BME280;19522;45.656;11.302;2023-01-31T08:45:40;98878.72;;;1.99;58.35
33161;BME280;19522;45.656;11.302;2023-01-31T08:48:06;98875.31;;;2.20;57.40
33161;BME280;19522;45.656;11.302;2023-01-31T08:50:32;98867.03;;;2.23;56.89
33161;BME280;19522;45.656;11.302;2023-01-31T08:52:59;98881.66;;;2.62;56.01
33161;BME280;19522;45.656;11.302;2023-01-31T08:55:26;98881.06;;;2.91;54.44
33161;BME280;19522;45.656;11.302;2023-01-31T08:57:52;98858.59;;;2.71;54.27
33161;BME280;19522;45.656;11.302;2023-01-31T09:00:19;98872.66;;;2.85;54.65
33161;BME280;19522;45.656;11.302;2023-01-31T09:02:51;98888.81;;;3.06;54.64
33161;BME280;19522;45.656;11.302;2023-01-31T09:05:17;98877.16;;;3.17;54.90
33161;BME280;19522;45.656;11.302;2023-01-31T09:07:42;98870.81;;;3.18;54.46
33161;BME280;19522;45.656;11.302;2023-01-31T09:10:08;98881.13;;;3.43;53.71
33161;BME280;19522;45.656;11.302;2023-01-31T09:12:34;98886.59;;;3.63;53.29
33161;BME280;19522;45.656;11.302;2023-01-31T09:15:03;98889.53;;;3.81;53.26
33161;BME280;19522;45.656;11.302;2023-01-31T09:17:29;98877.56;;;3.95;53.72
33161;BME280;19522;45.656;11.302;2023-01-31T09:19:56;98883.00;;;4.15;52.98
33161;BME280;19522;45.656;11.302;2023-01-31T09:22:21;98873.91;;;4.57;52.02
33161;BME280;19522;45.656;11.302;2023-01-31T09:24:47;98831.31;;;4.72;50.74
33161;BME280;19522;45.656;11.302;2023-01-31T09:27:13;98848.16;;;4.83;50.42
33161;BME280;19522;45.656;11.302;2023-01-31T09:29:38;98862.16;;;5.07;51.45
33161;BME280;19522;45.656;11.302;2023-01-31T09:32:04;98867.66;;;5.25;51.08
33161;BME280;19522;45.656;11.302;2023-01-31T09:34:30;98850.47;;;5.45;49.80
33161;BME280;19522;45.656;11.302;2023-01-31T09:36:56;98858.44;;;5.85;48.03
33161;BME280;19522;45.656;11.302;2023-01-31T09:39:22;98848.63;;;6.21;46.98
33161;BME280;19522;45.656;11.302;2023-01-31T09:42:09;98856.88;;;6.84;46.69
33161;BME280;19522;45.656;11.302;2023-01-31T09:44:41;98852.09;;;7.67;45.24
33161;BME280;19522;45.656;11.302;2023-01-31T09:47:45;98843.25;;;8.93;42.86
33161;BME280;19522;45.656;11.302;2023-01-31T09:50:34;98821.69;;;10.06;40.51
33161;BME280;19522;45.656;11.302;2023-01-31T09:53:01;98844.75;;;11.28;38.65
33161;BME280;19522;45.656;11.302;2023-01-31T09:55:35;98829.63;;;12.23;35.45
33161;BME280;19522;45.656;11.302;2023-01-31T10:01:02;98812.06;;;14.20;30.88
33161;BME280;19522;45.656;11.302;2023-01-31T10:03:50;98824.34;;;15.26;30.48
33161;BME280;19522;45.656;11.302;2023-01-31T10:06:44;98815.13;;;16.33;29.12
33161;BME280;19522;45.656;11.302;2023-01-31T10:11:50;98830.69;;;18.18;26.04
33161;BME280;19522;45.656;11.302;2023-01-31T10:17:06;98820.22;;;18.94;23.04
33161;BME280;19522;45.656;11.302;2023-01-31T10:19:45;98832.56;;;19.46;22.79
33161;BME280;19522;45.656;11.302;2023-01-31T10:22:18;98822.13;;;19.48;23.78
33161;BME280;19522;45.656;11.302;2023-01-31T10:24:57;98815.56;;;20.61;22.74
33161;BME280;19522;45.656;11.302;2023-01-31T10:27:44;98812.84;;;20.90;21.36
33161;BME280;19522;45.656;11.302;2023-01-31T10:30:32;98796.91;;;21.43;19.99
33161;BME280;19522;45.656;11.302;2023-01-31T10:33:11;98809.59;;;22.35;19.67
33161;BME280;19522;45.656;11.302;2023-01-31T10:35:43;98804.53;;;22.98;19.73
33161;BME280;19522;45.656;11.302;2023-01-31T10:38:20;98805.31;;;22.94;16.73
33161;BME280;19522;45.656;11.302;2023-01-31T10:40:54;98801.88;;;22.81;14.98
33161;BME280;19522;45.656;11.302;2023-01-31T10:43:35;98798.44;;;22.47;13.56
33161;BME280;19522;45.656;11.302;2023-01-31T10:46:10;98771.09;;;22.78;13.55
33161;BME280;19522;45.656;11.302;2023-01-31T10:48:37;98784.84;;;22.95;11.92
33161;BME280;19522;45.656;11.302;2023-01-31T10:56:19;98787.78;;;22.83;11.58
33161;BME280;19522;45.656;11.302;2023-01-31T10:58:46;98773.13;;;22.38;11.80
33161;BME280;19522;45.656;11.302;2023-01-31T11:01:12;98782.53;;;22.15;12.38
33161;BME280;19522;45.656;11.302;2023-01-31T11:03:47;98775.63;;;22.62;12.88
33161;BME280;19522;45.656;11.302;2023-01-31T11:06:14;98771.38;;;22.32;12.40
33161;BME280;19522;45.656;11.302;2023-01-31T11:08:43;98768.69;;;21.92;12.53
33161;BME280;19522;45.656;11.302;2023-01-31T11:11:13;98743.34;;;21.44;12.71
33161;BME280;19522;45.656;11.302;2023-01-31T11:13:39;98752.38;;;20.89;12.51
33161;BME280;19522;45.656;11.302;2023-01-31T11:16:10;98764.16;;;20.84;12.82
33161;BME280;19522;45.656;11.302;2023-01-31T11:18:43;98755.53;;;20.51;13.28
33161;BME280;19522;45.656;11.302;2023-01-31T11:21:28;98753.69;;;20.28;12.86
33161;BME280;19522;45.656;11.302;2023-01-31T11:24:01;98756.66;;;20.67;13.33
33161;BME280;19522;45.656;11.302;2023-01-31T11:26:34;98752.25;;;20.83;12.25
33161;BME280;19522;45.656;11.302;2023-01-31T11:29:06;98756.75;;;20.44;13.11
33161;BME280;19522;45.656;11.302;2023-01-31T11:31:37;98749.41;;;20.49;12.96
33161;BME280;19522;45.656;11.302;2023-01-31T11:34:17;98751.44;;;20.83;14.35
33161;BME280;19522;45.656;11.302;2023-01-31T11:36:44;98746.63;;;20.20;11.94
33161;BME280;19522;45.656;11.302;2023-01-31T11:39:35;98737.56;;;20.66;12.82
33161;BME280;19522;45.656;11.302;2023-01-31T11:42:13;98746.31;;;18.18;14.67
33161;BME280;19522;45.656;11.302;2023-01-31T11:45:09;98738.91;;;17.82;14.45
33161;BME280;19522;45.656;11.302;2023-01-31T11:47:51;98740.53;;;17.02;13.73
33161;BME280;19522;45.656;11.302;2023-01-31T11:50:37;98724.44;;;16.73;15.75
33161;BME280;19522;45.656;11.302;2023-01-31T11:53:16;98734.16;;;16.69;15.04
33161;BME280;19522;45.656;11.302;2023-01-31T11:55:43;98738.22;;;16.28;15.94
33161;BME280;19522;45.656;11.302;2023-01-31T11:58:35;98729.59;;;17.20;14.42
33161;BME280;19522;45.656;11.302;2023-01-31T12:01:22;98704.88;;;18.62;13.87
33161;BME280;19522;45.656;11.302;2023-01-31T12:04:16;98724.91;;;19.36;12.96
33161;BME280;19522;45.656;11.302;2023-01-31T12:06:56;98718.53;;;17.89;14.59
33161;BME280;19522;45.656;11.302;2023-01-31T12:09:24;98726.00;;;18.80;14.26
33161;BME280;19522;45.656;11.302;2023-01-31T12:11:55;98717.97;;;19.45;13.12
33161;BME280;19522;45.656;11.302;2023-01-31T12:14:22;98724.47;;;18.84;14.94
33161;BME280;19522;45.656;11.302;2023-01-31T12:16:53;98705.44;;;17.29;14.48
33161;BME280;19522;45.656;11.302;2023-01-31T12:19:36;98716.44;;;17.48;16.29
33161;BME280;19522;45.656;11.302;2023-01-31T12:25:02;98715.19;;;18.06;15.78
33161;BME280;19522;45.656;11.302;2023-01-31T12:32:40;98699.63;;;21.75;12.57
33161;BME280;19522;45.656;11.302;2023-01-31T12:38:05;98685.88;;;22.52;11.54
33161;BME280;19522;45.656;11.302;2023-01-31T12:40:48;98689.72;;;21.79;12.06
33161;BME280;19522;45.656;11.302;2023-01-31T12:43:44;98678.72;;;21.45;13.09
33161;BME280;19522;45.656;11.302;2023-01-31T12:46:36;98683.84;;;19.10;12.85
33161;BME280;19522;45.656;11.302;2023-01-31T13:00:07;98675.25;;;16.78;15.23
33161;BME280;19522;45.656;11.302;2023-01-31T13:06:00;98671.78;;;17.96;17.13
33161;BME280;19522;45.656;11.302;2023-01-31T13:08:30;98664.66;;;18.37;17.62
33161;BME280;19522;45.656;11.302;2023-01-31T13:11:08;98660.09;;;18.85;17.28
33161;BME280;19522;45.656;11.302;2023-01-31T13:13:48;98666.25;;;18.99;16.82
33161;BME280;19522;45.656;11.302;2023-01-31T13:16:20;98674.00;;;18.91;15.91
33161;BME280;19522;45.656;11.302;2023-01-31T13:18:49;98658.13;;;19.05;17.31
33161;BME280;19522;45.656;11.302;2023-01-31T13:21:19;98658.69;;;17.91;18.24
33161;BME280;19522;45.656;11.302;2023-01-31T13:23:59;98629.09;;;17.94;18.27
33161;BME280;19522;45.656;11.302;2023-01-31T13:26:32;98665.81;;;17.81;18.39
33161;BME280;19522;45.656;11.302;2023-01-31T13:29:09;98670.56;;;16.86;19.52
33161;BME280;19522;45.656;11.302;2023-01-31T13:31:52;98665.09;;;16.86;18.65
33161;BME280;19522;45.656;11.302;2023-01-31T13:34:30;98661.66;;;16.97;18.89
33161;BME280;19522;45.656;11.302;2023-01-31T13:37:01;98668.16;;;16.39;19.43
33161;BME280;19522;45.656;11.302;2023-01-31T13:40:02;98655.06;;;16.73;19.38
33161;BME280;19522;45.656;11.302;2023-01-31T13:42:20;98639.94;;;16.38;19.55
33161;BME280;19522;45.656;11.302;2023-01-31T13:44:46;98635.25;;;16.45;19.03
33161;BME280;19522;45.656;11.302;2023-01-31T13:47:23;98666.97;;;16.60;19.18
33161;BME280;19522;45.656;11.302;2023-01-31T13:50:00;98642.09;;;16.29;19.66
33161;BME280;19522;45.656;11.302;2023-01-31T13:52:35;98633.75;;;15.72;19.28
33161;BME280;19522;45.656;11.302;2023-01-31T13:55:12;98667.75;;;15.37;23.36
33161;BME280;19522;45.656;11.302;2023-01-31T13:57:42;98559.28;;;13.83;26.61
33161;BME280;19522;45.656;11.302;2023-01-31T14:00:47;98684.13;;;14.30;27.96
33161;BME280;19522;45.656;11.302;2023-01-31T14:03:19;98683.63;;;13.99;28.44
33161;BME280;19522;45.656;11.302;2023-01-31T14:05:56;98687.41;;;13.21;30.47
33161;BME280;19522;45.656;11.302;2023-01-31T14:16:43;98701.44;;;12.40;35.26
33161;BME280;19522;45.656;11.302;2023-01-31T14:22:03;98708.00;;;11.94;37.58
33161;BME280;19522;45.656;11.302;2023-01-31T14:27:26;98695.31;;;11.34;40.26
33161;BME280;19522;45.656;11.302;2023-01-31T14:32:59;98693.84;;;10.94;41.87
33161;BME280;19522;45.656;11.302;2023-01-31T14:36:12;98611.78;;;10.22;41.84
33161;BME280;19522;45.656;11.302;2023-01-31T14:55:01;98728.59;;;10.60;45.04
33161;BME280;19522;45.656;11.302;2023-01-31T14:57:41;98709.22;;;10.17;45.43
33161;BME280;19522;45.656;11.302;2023-01-31T15:02:47;98728.63;;;10.28;46.44